Time;durP1;ratioP1;P1;durP2;ratioP2;P2;SDS_P1;SDS_P2;PMS_P1;PMS_P2;Temp;Humidity;BMP_temperature;BMP_pressure;BME280_temperature;BME280_humidity;BME280_pressure;Samples;Min_cycle;Max_cycle;Signal;HPM_P1;HPM_P2
2021/10/30 00:00:06;;;;;;;;;21.25;21.00;;;;;;;;5018044;28;45645;-69
2021/10/30 00:02:31;;;;;;;;;29.00;25.25;;;;;;;;5016008;28;47481;-70
2021/10/30 00:04:56;;;;;;;;;27.25;22.75;;;;;;;;5015157;28;45360;-70
2021/10/30 00:07:22;;;;;;;;;27.50;24.50;;;;;;;;5017754;28;45349;-69
2021/10/30 00:09:47;;;;;;;;;24.75;21.00;;;;;;;;5018172;28;45270;-68
2021/10/30 00:12:12;;;;;;;;;27.50;24.50;;;;;;;;5017330;28;46403;-66
2021/10/30 00:14:38;;;;;;;;;24.25;23.00;;;;;;;;5017438;28;45328;-67
2021/10/30 00:17:03;;;;;;;;;25.50;22.75;;;;;;;;5016265;28;45444;-70
2021/10/30 00:19:28;;;;;;;;;27.75;27.25;;;;;;;;5017535;28;45338;-69
2021/10/30 00:21:54;;;;;;;;;30.00;27.25;;;;;;;;5017226;28;45391;-70
2021/10/30 00:24:19;;;;;;;;;26.25;25.75;;;;;;;;5016120;28;45475;-68
2021/10/30 00:26:45;;;;;;;;;23.00;20.00;;;;;;;;5015792;28;45323;-69
2021/10/30 00:29:10;;;;;;;;;30.25;27.00;;;;;;;;5016238;28;45692;-68
2021/10/30 00:31:35;;;;;;;;;20.50;19.75;;;;;;;;5016888;28;46144;-68
2021/10/30 00:34:00;;;;;;;;;24.75;20.00;;;;;;;;5015318;28;45264;-71
2021/10/30 00:36:25;;;;;;;;;25.00;22.25;;;;;;;;5017212;28;45349;-69
2021/10/30 00:38:51;;;;;;;;;23.25;18.75;;;;;;;;5017476;28;45498;-68
2021/10/30 00:41:17;;;;;;;;;21.25;20.25;;;;;;;;5016738;28;45265;-68
2021/10/30 00:43:44;;;;;;;;;22.50;20.50;;;;;;;;5015296;28;45388;-68
2021/10/30 00:46:09;;;;;;;;;21.50;18.25;;;;;;;;5016794;28;45410;-65
2021/10/30 00:48:34;;;;;;;;;24.50;20.75;;;;;;;;5017191;28;45568;-71
2021/10/30 00:51:00;;;;;;;;;18.75;16.75;;;;;;;;5016646;28;45472;-70
2021/10/30 00:53:27;;;;;;;;;16.00;16.00;;;;;;;;5017005;28;45327;-67
2021/10/30 00:55:53;;;;;;;;;21.25;17.75;;;;;;;;5017610;28;45269;-70
2021/10/30 00:58:20;;;;;;;;;18.50;17.75;;;;;;;;5017574;28;45573;-69
2021/10/30 01:00:45;;;;;;;;;17.25;15.00;;;;;;;;5017270;28;46137;-70
2021/10/30 01:03:11;;;;;;;;;20.50;18.50;;;;;;;;5015205;28;45175;-69
2021/10/30 01:05:36;;;;;;;;;20.50;17.00;;;;;;;;5016625;28;45447;-70
2021/10/30 01:08:01;;;;;;;;;16.00;16.00;;;;;;;;5016739;28;45335;-70
2021/10/30 01:10:26;;;;;;;;;18.75;16.50;;;;;;;;5016284;28;46405;-70
2021/10/30 01:12:52;;;;;;;;;17.75;16.50;;;;;;;;5016572;28;45184;-69
2021/10/30 01:15:17;;;;;;;;;17.50;15.00;;;;;;;;5015922;28;45284;-68
2021/10/30 01:17:43;;;;;;;;;17.00;16.50;;;;;;;;5016720;28;45518;-69
2021/10/30 01:20:18;;;;;;;;;15.00;15.00;;;;;;;;5016182;28;45614;-70
2021/10/30 01:22:43;;;;;;;;;16.25;14.00;;;;;;;;5016308;28;45226;-68
2021/10/30 01:25:08;;;;;;;;;23.00;16.50;;;;;;;;5016168;28;45267;-69
2021/10/30 01:27:33;;;;;;;;;18.75;14.50;;;;;;;;5016355;28;45547;-67
2021/10/30 01:29:59;;;;;;;;;15.50;13.75;;;;;;;;5016099;28;46458;-66
2021/10/30 01:32:24;;;;;;;;;15.00;14.50;;;;;;;;5016412;28;45264;-68
2021/10/30 01:34:49;;;;;;;;;19.00;16.75;;;;;;;;5016185;28;45356;-65
2021/10/30 01:37:14;;;;;;;;;14.25;12.50;;;;;;;;5014578;28;45257;-67
2021/10/30 01:39:40;;;;;;;;;13.00;12.25;;;;;;;;5015901;28;45533;-65
2021/10/30 01:42:05;;;;;;;;;13.00;12.50;;;;;;;;5015652;28;45317;-70
2021/10/30 01:44:31;;;;;;;;;14.25;13.75;;;;;;;;5015812;28;45432;-69
2021/10/30 01:46:57;;;;;;;;;13.25;12.00;;;;;;;;5016194;28;45533;-65
2021/10/30 01:49:23;;;;;;;;;13.00;13.00;;;;;;;;5016074;28;45421;-70
2021/10/30 01:51:48;;;;;;;;;12.00;10.00;;;;;;;;5015595;28;45395;-69
2021/10/30 01:54:13;;;;;;;;;12.00;12.00;;;;;;;;5015874;28;45448;-69
2021/10/30 01:56:39;;;;;;;;;18.75;18.75;;;;;;;;5014386;28;45396;-69
2021/10/30 01:59:04;;;;;;;;;16.75;14.75;;;;;;;;5015474;28;45428;-71
2021/10/30 02:01:29;;;;;;;;;13.50;13.50;;;;;;;;5015537;28;45376;-69
2021/10/30 02:03:55;;;;;;;;;15.50;13.75;;;;;;;;5016192;28;45269;-68
2021/10/30 02:06:20;;;;;;;;;16.00;14.75;;;;;;;;5015966;28;45363;-70
2021/10/30 02:08:45;;;;;;;;;14.75;14.00;;;;;;;;5015702;28;46284;-68
2021/10/30 02:11:10;;;;;;;;;17.25;13.00;;;;;;;;5015838;28;45210;-68
2021/10/30 02:13:36;;;;;;;;;14.75;14.75;;;;;;;;5016054;28;45403;-70
2021/10/30 02:16:01;;;;;;;;;17.50;15.25;;;;;;;;5014253;28;45281;-68
2021/10/30 02:18:26;;;;;;;;;15.75;15.75;;;;;;;;5015687;28;47197;-70
2021/10/30 02:20:52;;;;;;;;;19.50;14.25;;;;;;;;5015309;28;45309;-72
2021/10/30 02:23:17;;;;;;;;;17.75;16.25;;;;;;;;5015558;28;45320;-70
2021/10/30 02:25:42;;;;;;;;;14.00;14.00;;;;;;;;5014196;28;45610;-70
2021/10/30 02:28:07;;;;;;;;;18.50;14.50;;;;;;;;5014388;28;46304;-70
2021/10/30 02:30:33;;;;;;;;;16.25;15.25;;;;;;;;5015207;28;45329;-72
2021/10/30 02:33:00;;;;;;;;;19.50;15.25;;;;;;;;5015700;28;45292;-65
2021/10/30 02:35:25;;;;;;;;;27.25;22.50;;;;;;;;5016617;28;45364;-69
2021/10/30 02:37:50;;;;;;;;;16.75;15.75;;;;;;;;5015462;28;45494;-68
2021/10/30 02:40:16;;;;;;;;;34.50;30.25;;;;;;;;5015911;28;45389;-68
2021/10/30 02:42:41;;;;;;;;;27.50;26.25;;;;;;;;5015054;28;45393;-69
2021/10/30 02:45:07;;;;;;;;;22.25;19.00;;;;;;;;5014875;28;45644;-72
2021/10/30 02:47:32;;;;;;;;;16.25;15.75;;;;;;;;5014944;28;46648;-72
2021/10/30 02:49:58;;;;;;;;;21.75;19.00;;;;;;;;5013947;28;45355;-69
2021/10/30 02:52:24;;;;;;;;;18.50;18.50;;;;;;;;5015693;28;45322;-70
2021/10/30 02:54:49;;;;;;;;;15.25;14.75;;;;;;;;5015149;28;45332;-69
2021/10/30 02:57:15;;;;;;;;;20.00;19.00;;;;;;;;5014744;28;46464;-71
2021/10/30 02:59:40;;;;;;;;;21.75;19.25;;;;;;;;5013268;28;45531;-69
2021/10/30 03:02:05;;;;;;;;;22.25;19.25;;;;;;;;5014814;28;45331;-70
2021/10/30 03:04:31;;;;;;;;;20.75;20.75;;;;;;;;5014956;28;45366;-69
2021/10/30 03:06:57;;;;;;;;;19.75;18.50;;;;;;;;5014967;28;47054;-65
2021/10/30 03:09:22;;;;;;;;;19.25;19.00;;;;;;;;5014761;28;45368;-64
2021/10/30 03:11:47;;;;;;;;;22.50;17.00;;;;;;;;5014665;28;45371;-68
2021/10/30 03:14:12;;;;;;;;;16.75;16.00;;;;;;;;5013660;28;45285;-66
2021/10/30 03:16:38;;;;;;;;;15.00;12.75;;;;;;;;5014562;28;45288;-66
2021/10/30 03:19:03;;;;;;;;;15.75;15.25;;;;;;;;5013458;28;45309;-68
2021/10/30 03:21:28;;;;;;;;;17.75;14.75;;;;;;;;5013476;28;45317;-68
2021/10/30 03:23:54;;;;;;;;;18.25;18.00;;;;;;;;5015080;28;45617;-69
2021/10/30 03:26:19;;;;;;;;;21.50;19.25;;;;;;;;5014624;28;45449;-69
2021/10/30 03:28:44;;;;;;;;;13.50;13.50;;;;;;;;5014616;28;45494;-68
2021/10/30 03:31:10;;;;;;;;;14.50;14.50;;;;;;;;5015593;28;45637;-68
2021/10/30 03:33:35;;;;;;;;;13.75;13.75;;;;;;;;5013966;28;45411;-68
2021/10/30 03:36:01;;;;;;;;;15.00;13.75;;;;;;;;5015141;28;46186;-67
2021/10/30 03:38:26;;;;;;;;;12.25;9.50;;;;;;;;5016290;28;45364;-65
2021/10/30 03:40:51;;;;;;;;;15.75;14.50;;;;;;;;5018076;28;45299;-67
2021/10/30 03:43:17;;;;;;;;;17.50;14.00;;;;;;;;5018066;28;45318;-67
2021/10/30 03:45:42;;;;;;;;;16.00;13.50;;;;;;;;5016267;28;46982;-70
2021/10/30 03:48:08;;;;;;;;;13.25;13.25;;;;;;;;5017862;28;45406;-70
2021/10/30 03:50:33;;;;;;;;;17.75;11.75;;;;;;;;5017827;28;45244;-68
2021/10/30 03:52:59;;;;;;;;;14.25;13.00;;;;;;;;5018674;28;45291;-67
2021/10/30 03:55:24;;;;;;;;;17.75;16.00;;;;;;;;5017469;28;46074;-69
2021/10/30 03:57:49;;;;;;;;;11.75;11.75;;;;;;;;5017491;28;45228;-71
2021/10/30 04:00:15;;;;;;;;;14.00;13.00;;;;;;;;5017618;28;45309;-69
2021/10/30 04:02:41;;;;;;;;;14.50;13.25;;;;;;;;5017513;28;45212;-71
2021/10/30 04:05:06;;;;;;;;;16.00;13.00;;;;;;;;5017427;28;45481;-67
2021/10/30 04:07:31;;;;;;;;;13.75;10.75;;;;;;;;5017743;28;45436;-69
2021/10/30 04:09:56;;;;;;;;;13.50;13.25;;;;;;;;5017556;28;45261;-70
2021/10/30 04:12:22;;;;;;;;;18.50;15.00;;;;;;;;5017737;28;45225;-69
2021/10/30 04:14:47;;;;;;;;;9.75;9.75;;;;;;;;5017456;28;47303;-70
2021/10/30 04:17:12;;;;;;;;;13.50;13.25;;;;;;;;5017439;28;45175;-71
2021/10/30 04:19:38;;;;;;;;;11.50;11.50;;;;;;;;5017946;28;45283;-69
2021/10/30 04:22:03;;;;;;;;;11.00;10.75;;;;;;;;5018056;28;45544;-71
2021/10/30 04:24:28;;;;;;;;;13.25;9.00;;;;;;;;5017004;28;46527;-69
2021/10/30 04:26:53;;;;;;;;;10.25;10.25;;;;;;;;5016861;28;45297;-69
2021/10/30 04:29:19;;;;;;;;;12.25;12.00;;;;;;;;5015916;28;45178;-69
2021/10/30 04:31:44;;;;;;;;;11.50;8.75;;;;;;;;5017423;28;45237;-72
2021/10/30 04:34:18;;;;;;;;;11.75;10.00;;;;;;;;5017076;28;46347;-69
2021/10/30 04:36:43;;;;;;;;;11.25;10.00;;;;;;;;5016672;28;45286;-68
2021/10/30 04:39:09;;;;;;;;;14.00;10.00;;;;;;;;5015400;28;45260;-69
2021/10/30 04:41:37;;;;;;;;;14.75;11.50;;;;;;;;5017155;28;45518;-69
2021/10/30 04:44:02;;;;;;;;;15.00;12.75;;;;;;;;5015533;28;47594;-69
2021/10/30 04:46:28;;;;;;;;;13.25;12.25;;;;;;;;5016448;28;45374;-69
2021/10/30 04:48:53;;;;;;;;;13.25;13.25;;;;;;;;5016642;28;45245;-68
2021/10/30 04:51:19;;;;;;;;;14.75;14.25;;;;;;;;5016452;28;45369;-70
2021/10/30 04:53:44;;;;;;;;;12.50;12.25;;;;;;;;5015114;28;48518;-70
2021/10/30 04:56:10;;;;;;;;;11.25;9.75;;;;;;;;5016456;28;45278;-69
2021/10/30 04:58:41;;;;;;;;;13.00;11.00;;;;;;;;5016981;28;45407;-70
2021/10/30 05:01:06;;;;;;;;;13.25;12.00;;;;;;;;5016506;28;45527;-68
2021/10/30 05:03:31;;;;;;;;;12.00;12.00;;;;;;;;5016690;28;46644;-71
2021/10/30 05:05:56;;;;;;;;;13.25;10.75;;;;;;;;5016543;28;45468;-69
2021/10/30 05:08:22;;;;;;;;;12.75;12.00;;;;;;;;5017026;28;45384;-68
2021/10/30 05:10:47;;;;;;;;;12.50;12.50;;;;;;;;5016586;28;45634;-69
2021/10/30 05:13:12;;;;;;;;;13.75;13.50;;;;;;;;5016260;28;46245;-68
2021/10/30 05:15:37;;;;;;;;;14.50;10.00;;;;;;;;5017115;28;45328;-69
2021/10/30 05:18:03;;;;;;;;;17.50;13.25;;;;;;;;5016815;28;45422;-68
2021/10/30 05:20:28;;;;;;;;;13.50;12.50;;;;;;;;5014572;28;45614;-68
2021/10/30 05:22:54;;;;;;;;;16.50;14.50;;;;;;;;5015610;28;45514;-65
2021/10/30 05:25:19;;;;;;;;;11.25;11.25;;;;;;;;5015781;28;45244;-64
2021/10/30 05:27:44;;;;;;;;;12.50;11.25;;;;;;;;5014845;28;45392;-68
2021/10/30 05:30:10;;;;;;;;;1.75;1.75;;;;;;;;5014706;28;45336;-69
2021/10/30 05:32:35;;;;;;;;;13.00;10.75;;;;;;;;5016060;28;47222;-67
2021/10/30 05:35:00;;;;;;;;;11.50;10.00;;;;;;;;5016058;28;45310;-68
2021/10/30 05:37:26;;;;;;;;;13.00;11.50;;;;;;;;5016051;28;45331;-77
2021/10/30 05:39:51;;;;;;;;;10.50;10.50;;;;;;;;5016231;28;45684;-75
2021/10/30 05:42:17;;;;;;;;;13.50;11.75;;;;;;;;5014335;28;48060;-69
2021/10/30 05:44:43;;;;;;;;;13.50;12.00;;;;;;;;5015503;28;45489;-68
2021/10/30 05:47:09;;;;;;;;;12.50;12.00;;;;;;;;5016023;28;45316;-68
2021/10/30 05:49:38;;;;;;;;;10.75;10.50;;;;;;;;5016317;28;45584;-67
2021/10/30 05:52:04;;;;;;;;;14.25;12.00;;;;;;;;5015543;28;46672;-68
2021/10/30 05:54:30;;;;;;;;;12.00;11.00;;;;;;;;5015633;28;45268;-69
2021/10/30 05:56:55;;;;;;;;;14.50;10.75;;;;;;;;5015905;28;45228;-69
2021/10/30 05:59:20;;;;;;;;;12.00;8.00;;;;;;;;5016058;28;45224;-70
2021/10/30 06:01:45;;;;;;;;;10.00;9.25;;;;;;;;5014302;28;46424;-69
2021/10/30 06:04:11;;;;;;;;;9.75;9.50;;;;;;;;5015405;28;45288;-69
2021/10/30 06:06:36;;;;;;;;;9.75;7.75;;;;;;;;5015555;28;45449;-68
2021/10/30 06:09:01;;;;;;;;;8.25;7.25;;;;;;;;5015604;28;45491;-69
2021/10/30 06:11:26;;;;;;;;;10.00;9.50;;;;;;;;5013868;28;45659;-69
2021/10/30 06:13:52;;;;;;;;;13.50;11.00;;;;;;;;5013857;28;45382;-69
2021/10/30 06:16:17;;;;;;;;;8.75;8.75;;;;;;;;5015548;28;45315;-69
2021/10/30 06:18:42;;;;;;;;;12.75;10.00;;;;;;;;5015525;28;45400;-68
2021/10/30 06:21:07;;;;;;;;;11.00;8.75;;;;;;;;5015244;28;46400;-67
2021/10/30 06:23:33;;;;;;;;;10.00;10.00;;;;;;;;5015251;28;45150;-68
2021/10/30 06:25:58;;;;;;;;;9.00;8.00;;;;;;;;5015016;28;45336;-70
2021/10/30 06:28:23;;;;;;;;;13.50;10.50;;;;;;;;5015226;28;45511;-68
2021/10/30 06:30:49;;;;;;;;;8.25;7.00;;;;;;;;5014971;28;45392;-69
2021/10/30 06:33:14;;;;;;;;;8.25;6.50;;;;;;;;5015126;28;45257;-68
2021/10/30 06:35:39;;;;;;;;;11.00;9.25;;;;;;;;5015433;28;45524;-68
2021/10/30 06:38:04;;;;;;;;;7.75;7.75;;;;;;;;5015195;28;45665;-69
2021/10/30 06:40:30;;;;;;;;;8.00;8.00;;;;;;;;5014482;28;45786;-67
2021/10/30 06:42:55;;;;;;;;;10.75;9.25;;;;;;;;5014885;28;45452;-68
2021/10/30 06:45:20;;;;;;;;;12.00;8.00;;;;;;;;5014811;28;45418;-69
2021/10/30 06:47:46;;;;;;;;;8.00;8.00;;;;;;;;5013712;28;45519;-69
2021/10/30 06:50:20;;;;;;;;;9.50;8.50;;;;;;;;5015018;28;46214;-69
2021/10/30 06:52:45;;;;;;;;;8.75;7.75;;;;;;;;5014806;28;45503;-69
2021/10/30 06:55:11;;;;;;;;;7.25;7.25;;;;;;;;5013697;28;45455;-69
2021/10/30 06:57:36;;;;;;;;;6.25;6.25;;;;;;;;5013492;28;45411;-69
2021/10/30 07:00:05;;;;;;;;;6.75;6.75;;;;;;;;5014725;28;45468;-68
2021/10/30 07:02:31;;;;;;;;;7.25;7.25;;;;;;;;5014472;28;45260;-69
2021/10/30 07:04:56;;;;;;;;;11.75;8.25;;;;;;;;5013033;28;45590;-69
2021/10/30 07:07:21;;;;;;;;;6.00;6.00;;;;;;;;5015003;28;45482;-68
2021/10/30 07:09:46;;;;;;;;;6.25;6.25;;;;;;;;5014717;28;45512;-68
2021/10/30 07:12:12;;;;;;;;;12.50;11.25;;;;;;;;5014891;28;45331;-68
2021/10/30 07:14:37;;;;;;;;;6.75;6.00;;;;;;;;5016607;28;45186;-68
2021/10/30 07:17:02;;;;;;;;;8.50;7.00;;;;;;;;5018226;28;45227;-69
2021/10/30 07:19:28;;;;;;;;;8.00;6.00;;;;;;;;5017862;28;45443;-68
2021/10/30 07:21:53;;;;;;;;;5.25;4.50;;;;;;;;5018038;28;45231;-67
2021/10/30 07:24:19;;;;;;;;;7.25;6.00;;;;;;;;5018169;28;45317;-68
2021/10/30 07:26:44;;;;;;;;;8.25;8.00;;;;;;;;5016865;28;45338;-69
2021/10/30 07:29:09;;;;;;;;;7.75;7.75;;;;;;;;5018634;28;46335;-68
2021/10/30 07:31:35;;;;;;;;;8.50;6.50;;;;;;;;5017992;28;45373;-68
2021/10/30 07:34:00;;;;;;;;;7.00;7.00;;;;;;;;5017963;28;45307;-69
2021/10/30 07:36:25;;;;;;;;;5.25;5.25;;;;;;;;5017982;28;45570;-69
2021/10/30 07:38:50;;;;;;;;;6.50;6.50;;;;;;;;5017894;28;46211;-68
2021/10/30 07:41:16;;;;;;;;;6.75;6.50;;;;;;;;5018782;28;45432;-69
2021/10/30 07:43:42;;;;;;;;;5.50;5.50;;;;;;;;5018325;28;45410;-68
2021/10/30 07:46:09;;;;;;;;;6.00;6.00;;;;;;;;5017730;28;45525;-69
2021/10/30 07:48:35;;;;;;;;;7.25;7.25;;;;;;;;5017652;28;46324;-69
2021/10/30 07:51:01;;;;;;;;;9.00;8.00;;;;;;;;5017416;28;45277;-69
2021/10/30 07:53:26;;;;;;;;;9.50;9.00;;;;;;;;5017662;28;45387;-68
2021/10/30 07:55:51;;;;;;;;;6.75;6.75;;;;;;;;5017546;28;45200;-69
2021/10/30 07:58:17;;;;;;;;;8.00;7.75;;;;;;;;5017071;28;46100;-68
2021/10/30 08:00:42;;;;;;;;;6.00;6.00;;;;;;;;5016524;28;45369;-68
2021/10/30 08:03:08;;;;;;;;;8.00;8.00;;;;;;;;5016237;28;45392;-69
2021/10/30 08:05:33;;;;;;;;;8.00;7.25;;;;;;;;5017658;28;45268;-68
2021/10/30 08:07:59;;;;;;;;;8.00;7.00;;;;;;;;5017291;28;46177;-69
2021/10/30 08:10:27;;;;;;;;;6.50;5.75;;;;;;;;5017565;28;45284;-68
2021/10/30 08:12:53;;;;;;;;;10.50;8.00;;;;;;;;5017588;28;45469;-68
2021/10/30 08:15:18;;;;;;;;;8.50;7.00;;;;;;;;5016222;28;45522;-68
2021/10/30 08:17:44;;;;;;;;;7.25;6.50;;;;;;;;5017359;28;46550;-69
2021/10/30 08:20:09;;;;;;;;;7.75;7.75;;;;;;;;5017229;28;45332;-68
2021/10/30 08:22:34;;;;;;;;;9.00;9.00;;;;;;;;5017309;28;45238;-69
2021/10/30 08:25:00;;;;;;;;;8.75;7.75;;;;;;;;5016274;28;45159;-69
2021/10/30 08:27:25;;;;;;;;;9.00;9.00;;;;;;;;5017603;28;46212;-69
2021/10/30 08:29:50;;;;;;;;;10.00;10.00;;;;;;;;5016077;28;45962;-69
2021/10/30 08:32:16;;;;;;;;;10.00;10.00;;;;;;;;5017522;28;45350;-69
2021/10/30 08:34:41;;;;;;;;;8.00;8.00;;;;;;;;5015925;28;45290;-69
2021/10/30 08:37:06;;;;;;;;;10.50;10.00;;;;;;;;5015470;28;48349;-68
2021/10/30 08:39:31;;;;;;;;;9.00;6.50;;;;;;;;5016761;28;45365;-67
2021/10/30 08:41:57;;;;;;;;;9.00;8.50;;;;;;;;5017095;28;45340;-69
2021/10/30 08:44:22;;;;;;;;;8.00;6.25;;;;;;;;5017295;28;45684;-69
2021/10/30 08:46:51;;;;;;;;;8.00;6.75;;;;;;;;5016883;28;45352;-68
2021/10/30 08:49:16;;;;;;;;;6.75;6.75;;;;;;;;5017126;28;45362;-68
2021/10/30 08:51:42;;;;;;;;;11.50;11.50;;;;;;;;5016592;28;45435;-69
2021/10/30 08:54:07;;;;;;;;;7.00;6.00;;;;;;;;5016934;28;45551;-70
2021/10/30 08:56:32;;;;;;;;;10.00;9.25;;;;;;;;5016572;28;45419;-72
2021/10/30 08:58:59;;;;;;;;;7.00;6.50;;;;;;;;5016506;28;45465;-68
2021/10/30 09:01:24;;;;;;;;;11.00;8.00;;;;;;;;5016473;28;45361;-69
2021/10/30 09:03:54;;;;;;;;;8.25;8.25;;;;;;;;5016709;28;45531;-69
2021/10/30 09:06:29;;;;;;;;;7.50;7.00;;;;;;;;5015298;28;46656;-70
2021/10/30 09:09:02;;;;;;;;;7.50;7.00;;;;;;;;5016233;28;45379;-68
2021/10/30 09:11:27;;;;;;;;;10.50;9.50;;;;;;;;5016242;28;45398;-69
2021/10/30 09:13:55;;;;;;;;;12.00;10.00;;;;;;;;5014872;28;45433;-69
2021/10/30 09:16:23;;;;;;;;;13.25;12.75;;;;;;;;5014855;28;47332;-68
2021/10/30 09:18:48;;;;;;;;;14.25;12.75;;;;;;;;5016427;28;45541;-68
2021/10/30 09:21:15;;;;;;;;;24.00;15.25;;;;;;;;5016359;28;45360;-69
2021/10/30 09:23:43;;;;;;;;;9.75;9.25;;;;;;;;5016509;28;45154;-69
2021/10/30 09:26:09;;;;;;;;;13.75;13.25;;;;;;;;5015924;28;46377;-70
2021/10/30 09:28:38;;;;;;;;;9.25;9.25;;;;;;;;5014456;28;45261;-68
2021/10/30 09:31:05;;;;;;;;;15.75;10.75;;;;;;;;5014353;28;45421;-68
2021/10/30 09:33:31;;;;;;;;;8.50;7.00;;;;;;;;5015863;28;45529;-69
2021/10/30 09:35:58;;;;;;;;;15.00;10.50;;;;;;;;5015640;28;45370;-69
2021/10/30 09:38:29;;;;;;;;;13.50;10.25;;;;;;;;5015804;28;45294;-69
2021/10/30 09:40:54;;;;;;;;;23.00;21.00;;;;;;;;5014388;28;45342;-69
2021/10/30 09:43:20;;;;;;;;;15.00;13.00;;;;;;;;5014873;28;45287;-69
2021/10/30 09:45:52;;;;;;;;;8.25;8.00;;;;;;;;5015890;28;46496;-69
2021/10/30 09:48:23;;;;;;;;;12.25;11.75;;;;;;;;5016107;28;45348;-68
2021/10/30 09:50:52;;;;;;;;;13.25;11.25;;;;;;;;5016174;28;45229;-70
2021/10/30 09:53:29;;;;;;;;;13.50;11.50;;;;;;;;5015816;28;45458;-67
2021/10/30 09:56:01;;;;;;;;;8.75;7.75;;;;;;;;5015579;28;46274;-69
2021/10/30 09:58:28;;;;;;;;;7.00;6.75;;;;;;;;5013869;28;45386;-67
2021/10/30 10:00:53;;;;;;;;;6.75;6.75;;;;;;;;5013963;28;45499;-69
2021/10/30 10:03:19;;;;;;;;;8.25;8.25;;;;;;;;5016031;28;45574;-69
2021/10/30 10:05:44;;;;;;;;;7.75;7.75;;;;;;;;5015339;28;46302;-68
2021/10/30 10:08:09;;;;;;;;;9.50;9.50;;;;;;;;5015225;28;45442;-68
2021/10/30 10:10:35;;;;;;;;;11.75;10.00;;;;;;;;5015382;28;45320;-68
2021/10/30 10:13:01;;;;;;;;;25.25;21.00;;;;;;;;5014152;28;45606;-69
2021/10/30 10:15:27;;;;;;;;;21.00;16.00;;;;;;;;5014873;28;45325;-69
2021/10/30 10:17:53;;;;;;;;;9.00;8.75;;;;;;;;5013944;28;45301;-69
2021/10/30 10:20:19;;;;;;;;;12.50;10.75;;;;;;;;5015618;28;45342;-68
2021/10/30 10:22:45;;;;;;;;;13.25;11.00;;;;;;;;5015323;28;45400;-68
2021/10/30 10:25:27;;;;;;;;;11.75;9.25;;;;;;;;5014807;28;46132;-68
2021/10/30 10:27:54;;;;;;;;;17.00;13.25;;;;;;;;5013674;28;45386;-68
2021/10/30 10:30:19;;;;;;;;;12.25;11.25;;;;;;;;5015239;28;45288;-68
2021/10/30 10:32:45;;;;;;;;;15.50;14.00;;;;;;;;5015201;28;45562;-68
2021/10/30 10:35:14;;;;;;;;;12.00;11.00;;;;;;;;5014539;28;45406;-69
2021/10/30 10:37:52;;;;;;;;;8.75;8.75;;;;;;;;5014428;28;45251;-68
2021/10/30 10:40:27;;;;;;;;;9.00;8.00;;;;;;;;5015337;28;45269;-70
2021/10/30 10:42:52;;;;;;;;;10.00;9.75;;;;;;;;5014258;28;45534;-69
2021/10/30 10:45:17;;;;;;;;;11.00;9.50;;;;;;;;5014972;28;46673;-68
2021/10/30 10:47:44;;;;;;;;;9.25;9.25;;;;;;;;5017306;28;45749;-69
2021/10/30 10:50:16;;;;;;;;;9.00;8.75;;;;;;;;5021669;28;45441;-69
2021/10/30 10:52:44;;;;;;;;;8.50;7.50;;;;;;;;5020208;28;45479;-69
2021/10/30 10:55:09;;;;;;;;;13.00;10.25;;;;;;;;5021043;28;46069;-69
2021/10/30 10:57:35;;;;;;;;;9.75;8.00;;;;;;;;5021469;28;45154;-68
2021/10/30 11:00:06;;;;;;;;;12.00;12.00;;;;;;;;5020067;28;45348;-68
2021/10/30 11:02:33;;;;;;;;;10.75;7.00;;;;;;;;5019911;28;45278;-68
2021/10/30 11:05:07;;;;;;;;;8.50;8.25;;;;;;;;5019752;28;45382;-69
2021/10/30 11:07:33;;;;;;;;;14.25;12.00;;;;;;;;5019472;28;45279;-69
2021/10/30 11:10:11;;;;;;;;;21.00;20.75;;;;;;;;5021465;28;45436;-69
2021/10/30 11:12:37;;;;;;;;;12.25;10.50;;;;;;;;5022099;28;45409;-69
2021/10/30 11:15:11;;;;;;;;;9.25;8.00;;;;;;;;5020199;28;47273;-69
2021/10/30 11:17:47;;;;;;;;;8.75;7.50;;;;;;;;5019764;28;45407;-69
2021/10/30 11:20:16;;;;;;;;;9.50;8.50;;;;;;;;5020257;28;45375;-71
2021/10/30 11:23:04;;;;;;;;;6.75;6.50;;;;;;;;5021746;28;45584;-70
2021/10/30 11:25:30;;;;;;;;;15.00;14.00;;;;;;;;5020536;28;46234;-69
2021/10/30 11:28:13;;;;;;;;;12.00;9.25;;;;;;;;5020276;28;45924;-70
2021/10/30 11:30:41;;;;;;;;;10.25;9.25;;;;;;;;5021657;28;45228;-70
2021/10/30 11:33:25;;;;;;;;;8.25;8.25;;;;;;;;5021975;28;45527;-68
2021/10/30 11:35:56;;;;;;;;;11.00;9.25;;;;;;;;5020944;28;46384;-70
2021/10/30 11:38:21;;;;;;;;;8.75;8.75;;;;;;;;5021286;28;46288;-69
2021/10/30 11:41:02;;;;;;;;;10.75;9.00;;;;;;;;5020750;28;45305;-70
2021/10/30 11:43:28;;;;;;;;;17.25;13.25;;;;;;;;5021077;28;45654;-69
2021/10/30 11:46:07;;;;;;;;;12.75;11.50;;;;;;;;5021486;28;46681;-70
2021/10/30 11:48:41;;;;;;;;;13.50;11.25;;;;;;;;5021360;28;45457;-69
2021/10/30 11:51:07;;;;;;;;;13.25;10.50;;;;;;;;5021134;28;45160;-70
2021/10/30 11:53:33;;;;;;;;;8.00;4.00;;;;;;;;5020765;28;45637;-69
2021/10/30 11:56:01;;;;;;;;;16.25;14.00;;;;;;;;5018992;28;48340;-69
2021/10/30 11:58:38;;;;;;;;;10.75;10.75;;;;;;;;5020766;28;45471;-68
2021/10/30 12:01:21;;;;;;;;;13.00;10.75;;;;;;;;5017487;28;45489;-70
2021/10/30 12:03:47;;;;;;;;;13.75;13.75;;;;;;;;5017645;28;45389;-69
2021/10/30 12:06:13;;;;;;;;;11.00;9.75;;;;;;;;5017096;28;47387;-69
2021/10/30 12:08:38;;;;;;;;;17.00;13.25;;;;;;;;5017077;28;45468;-69
2021/10/30 12:11:04;;;;;;;;;17.00;15.00;;;;;;;;5017179;28;45321;-69
2021/10/30 12:13:31;;;;;;;;;20.25;19.25;;;;;;;;5015550;28;45613;-70
2021/10/30 12:15:56;;;;;;;;;11.25;9.50;;;;;;;;5015992;28;48224;-68
2021/10/30 12:18:22;;;;;;;;;20.00;17.25;;;;;;;;5016916;28;45276;-68
2021/10/30 12:20:47;;;;;;;;;13.75;12.75;;;;;;;;5015540;28;45206;-68
2021/10/30 12:23:13;;;;;;;;;12.25;10.00;;;;;;;;5017292;28;45675;-69
2021/10/30 12:25:39;;;;;;;;;10.25;9.50;;;;;;;;5016666;28;45687;-70
2021/10/30 12:28:04;;;;;;;;;10.25;8.75;;;;;;;;5016804;28;45341;-69
2021/10/30 12:30:35;;;;;;;;;10.50;10.00;;;;;;;;5017061;28;45430;-69
2021/10/30 12:33:10;;;;;;;;;7.00;7.00;;;;;;;;5017466;28;45343;-69
2021/10/30 12:35:38;;;;;;;;;11.25;8.25;;;;;;;;5017093;28;46603;-69
2021/10/30 12:38:11;;;;;;;;;13.00;11.00;;;;;;;;5017417;28;45344;-68
2021/10/30 12:40:36;;;;;;;;;11.25;10.50;;;;;;;;5016610;28;45409;-69
2021/10/30 12:43:02;;;;;;;;;8.50;8.25;;;;;;;;5018013;28;45570;-69
2021/10/30 12:45:41;;;;;;;;;7.75;7.75;;;;;;;;5018525;28;46080;-69
2021/10/30 12:48:32;;;;;;;;;7.50;7.00;;;;;;;;5016686;28;45501;-68
2021/10/30 12:50:59;;;;;;;;;10.00;10.00;;;;;;;;5011475;28;45446;-68
2021/10/30 12:53:26;;;;;;;;;14.25;8.75;;;;;;;;5018129;28;45501;-69
2021/10/30 12:56:18;;;;;;;;;10.00;10.00;;;;;;;;5016319;28;46875;-68
2021/10/30 12:58:43;;;;;;;;;9.00;8.25;;;;;;;;5013504;28;45339;-68
2021/10/30 13:01:17;;;;;;;;;10.00;7.75;;;;;;;;5016450;28;45328;-69
2021/10/30 13:03:43;;;;;;;;;7.75;7.75;;;;;;;;5016992;28;45380;-68
2021/10/30 13:06:11;;;;;;;;;9.25;8.00;;;;;;;;5016526;28;45689;-68
2021/10/30 13:08:59;;;;;;;;;8.25;8.25;;;;;;;;5016439;28;45420;-69
2021/10/30 13:11:25;;;;;;;;;9.00;8.00;;;;;;;;5015644;28;45308;-68
2021/10/30 13:13:50;;;;;;;;;9.00;8.00;;;;;;;;5016369;28;45598;-69
2021/10/30 13:16:16;;;;;;;;;5.00;5.00;;;;;;;;5014386;28;47972;-69
2021/10/30 13:18:43;;;;;;;;;6.00;5.75;;;;;;;;5015963;28;45371;-69
2021/10/30 13:21:14;;;;;;;;;8.00;8.00;;;;;;;;5016107;28;45228;-69
2021/10/30 13:23:43;;;;;;;;;9.50;9.50;;;;;;;;5015050;28;45398;-68
2021/10/30 13:26:08;;;;;;;;;8.25;7.25;;;;;;;;5014809;28;48106;-69
2021/10/30 13:28:34;;;;;;;;;7.00;7.00;;;;;;;;5016137;28;45348;-69
2021/10/30 13:31:00;;;;;;;;;8.25;8.00;;;;;;;;5016296;28;45349;-68
2021/10/30 13:33:27;;;;;;;;;7.75;7.75;;;;;;;;5016294;28;45396;-69
2021/10/30 13:35:52;;;;;;;;;10.25;8.25;;;;;;;;5015669;28;47232;-68
2021/10/30 13:38:18;;;;;;;;;8.00;8.00;;;;;;;;5015927;28;45414;-68
2021/10/30 13:40:43;;;;;;;;;9.00;8.25;;;;;;;;5016045;28;45348;-69
2021/10/30 13:43:08;;;;;;;;;8.50;8.50;;;;;;;;5015871;28;45441;-69
2021/10/30 13:45:33;;;;;;;;;9.50;8.00;;;;;;;;5015650;28;46769;-69
2021/10/30 13:47:58;;;;;;;;;8.00;8.00;;;;;;;;5016201;28;45356;-69
2021/10/30 13:50:25;;;;;;;;;5.50;5.00;;;;;;;;5016267;28;45343;-69
2021/10/30 13:52:51;;;;;;;;;16.00;8.75;;;;;;;;5016521;28;45647;-72
2021/10/30 13:55:18;;;;;;;;;4.75;4.75;;;;;;;;5015630;28;45690;-68
2021/10/30 13:57:43;;;;;;;;;13.25;7.50;;;;;;;;5014933;28;45480;-68
2021/10/30 14:00:08;;;;;;;;;7.75;6.75;;;;;;;;5015639;28;45359;-69
2021/10/30 14:02:35;;;;;;;;;8.00;6.25;;;;;;;;5016236;28;45399;-69
2021/10/30 14:05:00;;;;;;;;;10.25;7.25;;;;;;;;5015949;28;45459;-69
2021/10/30 14:07:26;;;;;;;;;5.25;5.25;;;;;;;;5014238;28;45313;-69
2021/10/30 14:09:51;;;;;;;;;11.00;8.00;;;;;;;;5014265;28;45434;-70
2021/10/30 14:12:16;;;;;;;;;10.25;9.50;;;;;;;;5015679;28;45771;-71
2021/10/30 14:14:41;;;;;;;;;6.25;6.25;;;;;;;;5015662;28;45330;-69
2021/10/30 14:17:07;;;;;;;;;13.25;10.50;;;;;;;;5015740;28;45305;-69
2021/10/30 14:19:32;;;;;;;;;12.75;10.25;;;;;;;;5015945;28;45446;-70
2021/10/30 14:21:57;;;;;;;;;14.25;11.00;;;;;;;;5014003;28;45722;-69